sensor_id;sensor_type;location;lat;lon;timestamp;temperature;humidity
37232;DHT22;23125;48.156;15.954;2023-02-21T00:00:54;14.00;47.90
37232;DHT22;23125;48.156;15.954;2023-02-21T00:03:39;14.00;47.90
37232;DHT22;23125;48.156;15.954;2023-02-21T00:06:23;13.90;47.80
37232;DHT22;23125;48.156;15.954;2023-02-21T00:09:07;13.90;47.90
37232;DHT22;23125;48.156;15.954;2023-02-21T00:11:52;13.90;47.90
37232;DHT22;23125;48.156;15.954;2023-02-21T00:14:37;13.90;48.00
37232;DHT22;23125;48.156;15.954;2023-02-21T00:17:27;13.90;48.00
37232;DHT22;23125;48.156;15.954;2023-02-21T00:20:11;13.80;48.00
37232;DHT22;23125;48.156;15.954;2023-02-21T00:22:56;13.80;48.00
37232;DHT22;23125;48.156;15.954;2023-02-21T00:25:40;13.80;48.10
37232;DHT22;23125;48.156;15.954;2023-02-21T00:28:24;13.80;48.10
37232;DHT22;23125;48.156;15.954;2023-02-21T00:31:09;13.80;48.10
37232;DHT22;23125;48.156;15.954;2023-02-21T00:33:53;13.70;48.10
37232;DHT22;23125;48.156;15.954;2023-02-21T00:36:37;13.70;48.10
37232;DHT22;23125;48.156;15.954;2023-02-21T00:39:21;13.70;48.20
37232;DHT22;23125;48.156;15.954;2023-02-21T00:42:06;13.70;48.20
37232;DHT22;23125;48.156;15.954;2023-02-21T00:44:50;13.60;48.20
37232;DHT22;23125;48.156;15.954;2023-02-21T00:47:35;13.60;48.20
37232;DHT22;23125;48.156;15.954;2023-02-21T00:50:19;13.60;48.30
37232;DHT22;23125;48.156;15.954;2023-02-21T00:53:03;13.60;48.30
37232;DHT22;23125;48.156;15.954;2023-02-21T00:55:47;13.50;48.30
37232;DHT22;23125;48.156;15.954;2023-02-21T00:58:31;13.50;48.30
37232;DHT22;23125;48.156;15.954;2023-02-21T01:01:16;13.50;48.40
37232;DHT22;23125;48.156;15.954;2023-02-21T01:04:00;13.50;48.40
37232;DHT22;23125;48.156;15.954;2023-02-21T01:06:44;13.50;48.50
37232;DHT22;23125;48.156;15.954;2023-02-21T01:09:29;13.40;48.50
37232;DHT22;23125;48.156;15.954;2023-02-21T01:12:13;13.40;48.50
37232;DHT22;23125;48.156;15.954;2023-02-21T01:14:57;13.40;48.50
37232;DHT22;23125;48.156;15.954;2023-02-21T01:17:41;13.40;48.50
37232;DHT22;23125;48.156;15.954;2023-02-21T01:20:25;13.40;48.60
37232;DHT22;23125;48.156;15.954;2023-02-21T01:23:10;13.40;48.60
37232;DHT22;23125;48.156;15.954;2023-02-21T01:25:54;13.30;48.70
37232;DHT22;23125;48.156;15.954;2023-02-21T01:28:38;13.30;48.70
37232;DHT22;23125;48.156;15.954;2023-02-21T01:31:22;13.30;48.70
37232;DHT22;23125;48.156;15.954;2023-02-21T01:34:06;13.30;48.70
37232;DHT22;23125;48.156;15.954;2023-02-21T01:36:51;13.30;48.70
37232;DHT22;23125;48.156;15.954;2023-02-21T01:39:36;13.30;48.70
37232;DHT22;23125;48.156;15.954;2023-02-21T01:42:21;13.20;48.70
37232;DHT22;23125;48.156;15.954;2023-02-21T01:45:42;13.20;48.70
37232;DHT22;23125;48.156;15.954;2023-02-21T01:48:28;13.20;48.70
37232;DHT22;23125;48.156;15.954;2023-02-21T01:51:17;13.20;48.80
37232;DHT22;23125;48.156;15.954;2023-02-21T01:54:03;13.10;48.80
37232;DHT22;23125;48.156;15.954;2023-02-21T01:56:48;13.10;48.80
37232;DHT22;23125;48.156;15.954;2023-02-21T01:59:33;13.10;48.90
37232;DHT22;23125;48.156;15.954;2023-02-21T02:02:28;13.10;48.90
37232;DHT22;23125;48.156;15.954;2023-02-21T02:05:14;13.10;48.90
37232;DHT22;23125;48.156;15.954;2023-02-21T02:07:59;13.00;48.90
37232;DHT22;23125;48.156;15.954;2023-02-21T02:10:44;13.00;48.90
37232;DHT22;23125;48.156;15.954;2023-02-21T02:16:33;13.00;49.00
37232;DHT22;23125;48.156;15.954;2023-02-21T02:19:25;13.00;49.00
37232;DHT22;23125;48.156;15.954;2023-02-21T02:22:13;13.00;48.90
37232;DHT22;23125;48.156;15.954;2023-02-21T02:36:01;12.90;49.10
37232;DHT22;23125;48.156;15.954;2023-02-21T02:44:00;12.90;49.10
37232;DHT22;23125;48.156;15.954;2023-02-21T02:46:29;12.90;49.10
37232;DHT22;23125;48.156;15.954;2023-02-21T02:48:57;12.90;49.00
37232;DHT22;23125;48.156;15.954;2023-02-21T02:51:25;12.90;49.10
37232;DHT22;23125;48.156;15.954;2023-02-21T02:53:51;12.90;49.10
37232;DHT22;23125;48.156;15.954;2023-02-21T02:56:17;12.80;49.00
37232;DHT22;23125;48.156;15.954;2023-02-21T02:58:51;12.80;49.00
37232;DHT22;23125;48.156;15.954;2023-02-21T03:04:51;12.80;49.00
37232;DHT22;23125;48.156;15.954;2023-02-21T03:16:15;12.80;49.00
37232;DHT22;23125;48.156;15.954;2023-02-21T03:18:25;12.70;48.90
37232;DHT22;23125;48.156;15.954;2023-02-21T03:20:56;12.70;49.00
37232;DHT22;23125;48.156;15.954;2023-02-21T03:23:22;12.70;49.00
37232;DHT22;23125;48.156;15.954;2023-02-21T03:25:50;12.70;49.00
37232;DHT22;23125;48.156;15.954;2023-02-21T03:28:18;12.70;48.90
37232;DHT22;23125;48.156;15.954;2023-02-21T03:30:46;12.70;49.00
37232;DHT22;23125;48.156;15.954;2023-02-21T03:33:13;12.70;49.00
37232;DHT22;23125;48.156;15.954;2023-02-21T03:35:40;12.60;49.00
37232;DHT22;23125;48.156;15.954;2023-02-21T03:38:06;12.60;49.00
37232;DHT22;23125;48.156;15.954;2023-02-21T03:40:33;12.60;49.00
37232;DHT22;23125;48.156;15.954;2023-02-21T03:43:01;12.60;49.00
37232;DHT22;23125;48.156;15.954;2023-02-21T03:45:27;12.60;49.10
37232;DHT22;23125;48.156;15.954;2023-02-21T03:47:53;12.60;49.10
37232;DHT22;23125;48.156;15.954;2023-02-21T03:50:18;12.60;49.10
37232;DHT22;23125;48.156;15.954;2023-02-21T03:52:44;12.60;49.00
37232;DHT22;23125;48.156;15.954;2023-02-21T03:55:10;12.60;49.00
37232;DHT22;23125;48.156;15.954;2023-02-21T03:57:36;12.60;49.10
37232;DHT22;23125;48.156;15.954;2023-02-21T04:00:02;12.60;49.10
37232;DHT22;23125;48.156;15.954;2023-02-21T04:02:31;12.60;49.10
37232;DHT22;23125;48.156;15.954;2023-02-21T04:04:57;12.60;49.10
37232;DHT22;23125;48.156;15.954;2023-02-21T04:07:23;12.60;49.10
37232;DHT22;23125;48.156;15.954;2023-02-21T04:09:49;12.60;49.10
37232;DHT22;23125;48.156;15.954;2023-02-21T04:12:14;12.60;49.10
37232;DHT22;23125;48.156;15.954;2023-02-21T04:14:41;12.60;49.10
37232;DHT22;23125;48.156;15.954;2023-02-21T04:17:07;12.60;49.10
37232;DHT22;23125;48.156;15.954;2023-02-21T04:19:33;12.50;49.10
37232;DHT22;23125;48.156;15.954;2023-02-21T04:21:59;12.50;49.10
37232;DHT22;23125;48.156;15.954;2023-02-21T04:24:25;12.50;49.10
37232;DHT22;23125;48.156;15.954;2023-02-21T04:26:50;12.50;49.10
37232;DHT22;23125;48.156;15.954;2023-02-21T04:29:17;12.50;49.10
37232;DHT22;23125;48.156;15.954;2023-02-21T04:31:43;12.50;49.10
37232;DHT22;23125;48.156;15.954;2023-02-21T04:34:10;12.50;49.10
37232;DHT22;23125;48.156;15.954;2023-02-21T04:36:36;12.50;49.10
37232;DHT22;23125;48.156;15.954;2023-02-21T04:39:05;12.50;49.10
37232;DHT22;23125;48.156;15.954;2023-02-21T04:41:31;12.50;49.10
37232;DHT22;23125;48.156;15.954;2023-02-21T04:43:57;12.50;49.10
37232;DHT22;23125;48.156;15.954;2023-02-21T04:46:23;12.50;49.10
37232;DHT22;23125;48.156;15.954;2023-02-21T04:48:50;12.50;49.20
37232;DHT22;23125;48.156;15.954;2023-02-21T04:51:20;12.40;49.10
37232;DHT22;23125;48.156;15.954;2023-02-21T04:53:48;12.40;49.10
37232;DHT22;23125;48.156;15.954;2023-02-21T04:56:17;12.40;49.20
37232;DHT22;23125;48.156;15.954;2023-02-21T04:58:45;12.40;49.10
37232;DHT22;23125;48.156;15.954;2023-02-21T05:01:12;12.40;49.20
37232;DHT22;23125;48.156;15.954;2023-02-21T05:03:38;12.40;49.20
37232;DHT22;23125;48.156;15.954;2023-02-21T05:06:04;12.40;49.20
37232;DHT22;23125;48.156;15.954;2023-02-21T05:08:30;12.40;49.20
37232;DHT22;23125;48.156;15.954;2023-02-21T05:10:56;12.40;49.20
37232;DHT22;23125;48.156;15.954;2023-02-21T05:13:22;12.40;49.20
37232;DHT22;23125;48.156;15.954;2023-02-21T05:15:48;12.40;49.20
37232;DHT22;23125;48.156;15.954;2023-02-21T05:18:16;12.40;49.20
37232;DHT22;23125;48.156;15.954;2023-02-21T05:20:48;12.40;49.20
37232;DHT22;23125;48.156;15.954;2023-02-21T05:23:16;12.30;49.10
37232;DHT22;23125;48.156;15.954;2023-02-21T05:25:44;12.40;49.20
37232;DHT22;23125;48.156;15.954;2023-02-21T05:28:10;12.30;49.20
37232;DHT22;23125;48.156;15.954;2023-02-21T05:30:36;12.30;49.20
37232;DHT22;23125;48.156;15.954;2023-02-21T05:33:02;12.30;49.20
37232;DHT22;23125;48.156;15.954;2023-02-21T05:35:28;12.30;49.20
37232;DHT22;23125;48.156;15.954;2023-02-21T05:37:54;12.30;49.20
37232;DHT22;23125;48.156;15.954;2023-02-21T05:40:20;12.30;49.20
37232;DHT22;23125;48.156;15.954;2023-02-21T05:42:47;12.30;49.20
37232;DHT22;23125;48.156;15.954;2023-02-21T05:45:12;12.30;49.20
37232;DHT22;23125;48.156;15.954;2023-02-21T05:47:38;12.30;49.20
37232;DHT22;23125;48.156;15.954;2023-02-21T05:50:04;12.30;49.20
37232;DHT22;23125;48.156;15.954;2023-02-21T05:52:30;12.30;49.20
37232;DHT22;23125;48.156;15.954;2023-02-21T05:54:56;12.30;49.20
37232;DHT22;23125;48.156;15.954;2023-02-21T05:57:22;12.30;49.20
37232;DHT22;23125;48.156;15.954;2023-02-21T05:59:48;12.30;49.20
37232;DHT22;23125;48.156;15.954;2023-02-21T06:02:14;12.30;49.20
37232;DHT22;23125;48.156;15.954;2023-02-21T06:04:40;12.30;49.20
37232;DHT22;23125;48.156;15.954;2023-02-21T06:07:06;12.30;49.20
37232;DHT22;23125;48.156;15.954;2023-02-21T06:09:32;12.30;49.20
37232;DHT22;23125;48.156;15.954;2023-02-21T06:11:58;12.30;49.20
37232;DHT22;23125;48.156;15.954;2023-02-21T06:14:24;12.30;49.20
37232;DHT22;23125;48.156;15.954;2023-02-21T06:16:50;12.30;49.20
37232;DHT22;23125;48.156;15.954;2023-02-21T06:19:17;12.30;49.20
37232;DHT22;23125;48.156;15.954;2023-02-21T06:21:43;12.20;49.20
37232;DHT22;23125;48.156;15.954;2023-02-21T06:24:10;12.20;49.20
37232;DHT22;23125;48.156;15.954;2023-02-21T06:26:37;12.20;49.30
37232;DHT22;23125;48.156;15.954;2023-02-21T06:29:06;12.30;49.30
37232;DHT22;23125;48.156;15.954;2023-02-21T06:31:32;12.20;49.30
37232;DHT22;23125;48.156;15.954;2023-02-21T06:33:58;12.20;49.30
37232;DHT22;23125;48.156;15.954;2023-02-21T06:36:27;12.20;49.30
37232;DHT22;23125;48.156;15.954;2023-02-21T06:38:55;12.20;49.30
37232;DHT22;23125;48.156;15.954;2023-02-21T06:41:25;12.20;49.30
37232;DHT22;23125;48.156;15.954;2023-02-21T06:43:52;12.30;49.40
37232;DHT22;23125;48.156;15.954;2023-02-21T06:46:22;12.30;49.50
37232;DHT22;23125;48.156;15.954;2023-02-21T06:48:48;12.30;49.50
37232;DHT22;23125;48.156;15.954;2023-02-21T06:51:15;12.30;49.50
37232;DHT22;23125;48.156;15.954;2023-02-21T06:53:42;12.30;49.50
37232;DHT22;23125;48.156;15.954;2023-02-21T06:56:08;12.30;49.60
37232;DHT22;23125;48.156;15.954;2023-02-21T06:58:34;12.30;49.70
37232;DHT22;23125;48.156;15.954;2023-02-21T07:01:00;12.30;49.90
37232;DHT22;23125;48.156;15.954;2023-02-21T07:03:27;12.50;50.20
37232;DHT22;23125;48.156;15.954;2023-02-21T07:05:53;12.50;50.30
37232;DHT22;23125;48.156;15.954;2023-02-21T07:08:19;12.60;50.30
37232;DHT22;23125;48.156;15.954;2023-02-21T07:10:45;12.70;50.20
37232;DHT22;23125;48.156;15.954;2023-02-21T07:13:11;12.70;49.90
37232;DHT22;23125;48.156;15.954;2023-02-21T07:15:36;12.70;49.70
37232;DHT22;23125;48.156;15.954;2023-02-21T07:18:02;12.80;49.60
37232;DHT22;23125;48.156;15.954;2023-02-21T07:20:28;12.80;49.60
37232;DHT22;23125;48.156;15.954;2023-02-21T07:22:54;12.90;50.00
37232;DHT22;23125;48.156;15.954;2023-02-21T07:25:21;13.00;50.70
37232;DHT22;23125;48.156;15.954;2023-02-21T07:27:48;13.30;51.60
37232;DHT22;23125;48.156;15.954;2023-02-21T07:30:15;13.60;52.70
37232;DHT22;23125;48.156;15.954;2023-02-21T07:32:41;14.00;52.90
37232;DHT22;23125;48.156;15.954;2023-02-21T07:35:07;14.40;52.70
37232;DHT22;23125;48.156;15.954;2023-02-21T07:37:33;14.80;52.60
37232;DHT22;23125;48.156;15.954;2023-02-21T07:39:59;15.20;52.40
37232;DHT22;23125;48.156;15.954;2023-02-21T07:42:25;15.50;51.70
37232;DHT22;23125;48.156;15.954;2023-02-21T07:44:56;15.80;51.40
37232;DHT22;23125;48.156;15.954;2023-02-21T07:47:23;16.20;51.10
37232;DHT22;23125;48.156;15.954;2023-02-21T07:49:49;16.50;50.40
37232;DHT22;23125;48.156;15.954;2023-02-21T07:52:16;16.80;50.10
37232;DHT22;23125;48.156;15.954;2023-02-21T07:54:43;17.00;49.60
37232;DHT22;23125;48.156;15.954;2023-02-21T07:57:10;17.30;49.40
37232;DHT22;23125;48.156;15.954;2023-02-21T07:59:35;17.70;49.20
37232;DHT22;23125;48.156;15.954;2023-02-21T08:02:01;18.00;48.30
37232;DHT22;23125;48.156;15.954;2023-02-21T08:04:27;18.20;48.10
37232;DHT22;23125;48.156;15.954;2023-02-21T08:06:58;18.50;47.60
37232;DHT22;23125;48.156;15.954;2023-02-21T08:09:24;18.70;47.10
37232;DHT22;23125;48.156;15.954;2023-02-21T08:11:50;19.00;47.00
37232;DHT22;23125;48.156;15.954;2023-02-21T08:14:16;19.20;46.30
37232;DHT22;23125;48.156;15.954;2023-02-21T08:16:42;19.40;46.10
37232;DHT22;23125;48.156;15.954;2023-02-21T08:19:07;19.60;45.80
37232;DHT22;23125;48.156;15.954;2023-02-21T08:21:34;19.90;45.60
37232;DHT22;23125;48.156;15.954;2023-02-21T08:24:00;20.10;44.90
37232;DHT22;23125;48.156;15.954;2023-02-21T08:26:26;20.20;44.10
37232;DHT22;23125;48.156;15.954;2023-02-21T08:28:52;20.40;43.90
37232;DHT22;23125;48.156;15.954;2023-02-21T08:31:18;20.50;43.50
37232;DHT22;23125;48.156;15.954;2023-02-21T08:33:44;20.60;43.30
37232;DHT22;23125;48.156;15.954;2023-02-21T08:36:11;20.80;43.10
37232;DHT22;23125;48.156;15.954;2023-02-21T08:38:37;20.90;42.80
37232;DHT22;23125;48.156;15.954;2023-02-21T08:41:04;21.10;42.60
37232;DHT22;23125;48.156;15.954;2023-02-21T08:43:31;21.30;42.20
37232;DHT22;23125;48.156;15.954;2023-02-21T08:45:58;21.40;41.70
37232;DHT22;23125;48.156;15.954;2023-02-21T08:48:23;21.40;40.90
37232;DHT22;23125;48.156;15.954;2023-02-21T08:50:49;21.50;40.60
37232;DHT22;23125;48.156;15.954;2023-02-21T08:53:18;21.50;40.40
37232;DHT22;23125;48.156;15.954;2023-02-21T08:55:44;21.60;40.10
37232;DHT22;23125;48.156;15.954;2023-02-21T08:58:11;21.40;39.20
37232;DHT22;23125;48.156;15.954;2023-02-21T09:00:37;21.30;38.70
37232;DHT22;23125;48.156;15.954;2023-02-21T09:03:03;21.20;38.60
37232;DHT22;23125;48.156;15.954;2023-02-21T09:05:31;21.00;38.10
37232;DHT22;23125;48.156;15.954;2023-02-21T09:07:58;20.80;37.80
37232;DHT22;23125;48.156;15.954;2023-02-21T09:10:31;20.60;37.90
37232;DHT22;23125;48.156;15.954;2023-02-21T09:13:00;20.30;37.80
37232;DHT22;23125;48.156;15.954;2023-02-21T09:15:27;20.10;37.70
37232;DHT22;23125;48.156;15.954;2023-02-21T09:17:53;19.90;37.70
37232;DHT22;23125;48.156;15.954;2023-02-21T09:20:22;19.60;37.60
37232;DHT22;23125;48.156;15.954;2023-02-21T09:22:49;19.40;37.60
37232;DHT22;23125;48.156;15.954;2023-02-21T09:25:19;19.20;38.00
37232;DHT22;23125;48.156;15.954;2023-02-21T09:27:47;18.90;38.00
37232;DHT22;23125;48.156;15.954;2023-02-21T09:30:23;18.60;38.90
37232;DHT22;23125;48.156;15.954;2023-02-21T09:32:51;18.50;39.00
37232;DHT22;23125;48.156;15.954;2023-02-21T09:35:17;18.40;39.30
37232;DHT22;23125;48.156;15.954;2023-02-21T09:37:45;18.30;39.30
37232;DHT22;23125;48.156;15.954;2023-02-21T09:42:52;18.00;39.50
37232;DHT22;23125;48.156;15.954;2023-02-21T09:45:20;17.90;39.70
37232;DHT22;23125;48.156;15.954;2023-02-21T09:47:53;17.80;39.90
37232;DHT22;23125;48.156;15.954;2023-02-21T09:50:25;17.80;40.00
37232;DHT22;23125;48.156;15.954;2023-02-21T09:52:56;17.70;40.10
37232;DHT22;23125;48.156;15.954;2023-02-21T09:55:30;17.60;40.20
37232;DHT22;23125;48.156;15.954;2023-02-21T09:57:57;17.60;40.60
37232;DHT22;23125;48.156;15.954;2023-02-21T10:00:32;17.60;40.90
37232;DHT22;23125;48.156;15.954;2023-02-21T10:06:05;17.50;41.00
37232;DHT22;23125;48.156;15.954;2023-02-21T10:17:42;18.30;43.00
37232;DHT22;23125;48.156;15.954;2023-02-21T10:20:14;18.50;42.70
37232;DHT22;23125;48.156;15.954;2023-02-21T10:22:43;18.70;42.40
37232;DHT22;23125;48.156;15.954;2023-02-21T10:25:22;18.90;42.30
37232;DHT22;23125;48.156;15.954;2023-02-21T10:27:51;19.10;41.80
37232;DHT22;23125;48.156;15.954;2023-02-21T10:30:35;19.20;41.80
37232;DHT22;23125;48.156;15.954;2023-02-21T10:33:03;19.40;41.90
37232;DHT22;23125;48.156;15.954;2023-02-21T10:35:36;19.60;41.70
37232;DHT22;23125;48.156;15.954;2023-02-21T10:38:15;19.80;41.30
37232;DHT22;23125;48.156;15.954;2023-02-21T10:40:49;19.90;41.10
37232;DHT22;23125;48.156;15.954;2023-02-21T10:45:57;20.20;40.90
37232;DHT22;23125;48.156;15.954;2023-02-21T10:48:27;20.40;40.80
37232;DHT22;23125;48.156;15.954;2023-02-21T10:53:39;20.50;40.30
37232;DHT22;23125;48.156;15.954;2023-02-21T11:03:54;20.90;39.80
37232;DHT22;23125;48.156;15.954;2023-02-21T11:07:01;21.00;39.60
37232;DHT22;23125;48.156;15.954;2023-02-21T11:09:41;21.10;39.70
37232;DHT22;23125;48.156;15.954;2023-02-21T11:12:27;21.10;39.50
37232;DHT22;23125;48.156;15.954;2023-02-21T11:17:30;21.20;39.20
37232;DHT22;23125;48.156;15.954;2023-02-21T11:20:14;21.10;38.70
37232;DHT22;23125;48.156;15.954;2023-02-21T11:22:49;21.10;38.50
37232;DHT22;23125;48.156;15.954;2023-02-21T11:28:19;20.80;38.40
37232;DHT22;23125;48.156;15.954;2023-02-21T11:33:27;20.60;38.60
37232;DHT22;23125;48.156;15.954;2023-02-21T11:36:16;20.50;38.70
37232;DHT22;23125;48.156;15.954;2023-02-21T11:38:58;20.40;38.70
37232;DHT22;23125;48.156;15.954;2023-02-21T11:41:45;20.30;39.10
37232;DHT22;23125;48.156;15.954;2023-02-21T11:44:30;20.30;39.40
37232;DHT22;23125;48.156;15.954;2023-02-21T11:50:22;20.20;39.70
37232;DHT22;23125;48.156;15.954;2023-02-21T11:53:09;20.20;39.70
37232;DHT22;23125;48.156;15.954;2023-02-21T11:55:37;20.20;40.00
37232;DHT22;23125;48.156;15.954;2023-02-21T11:58:27;20.10;39.60
37232;DHT22;23125;48.156;15.954;2023-02-21T12:01:02;20.00;39.50
37232;DHT22;23125;48.156;15.954;2023-02-21T12:28:35;18.70;40.90
37232;DHT22;23125;48.156;15.954;2023-02-21T12:31:18;18.60;41.00
37232;DHT22;23125;48.156;15.954;2023-02-21T12:33:59;18.40;41.00
37232;DHT22;23125;48.156;15.954;2023-02-21T12:47:30;18.10;42.40
37232;DHT22;23125;48.156;15.954;2023-02-21T12:50:05;18.00;42.50
37232;DHT22;23125;48.156;15.954;2023-02-21T12:53:15;18.00;42.60
37232;DHT22;23125;48.156;15.954;2023-02-21T12:55:45;17.90;42.50
37232;DHT22;23125;48.156;15.954;2023-02-21T12:58:32;17.80;42.80
37232;DHT22;23125;48.156;15.954;2023-02-21T13:01:36;17.70;43.00
37232;DHT22;23125;48.156;15.954;2023-02-21T13:04:23;17.70;43.20
37232;DHT22;23125;48.156;15.954;2023-02-21T13:06:51;17.70;43.50
37232;DHT22;23125;48.156;15.954;2023-02-21T13:09:31;17.60;43.60
37232;DHT22;23125;48.156;15.954;2023-02-21T13:12:09;17.60;43.90
37232;DHT22;23125;48.156;15.954;2023-02-21T13:17:16;17.60;44.00
37232;DHT22;23125;48.156;15.954;2023-02-21T13:19:49;17.60;44.10
37232;DHT22;23125;48.156;15.954;2023-02-21T13:28:29;17.50;44.40
37232;DHT22;23125;48.156;15.954;2023-02-21T13:31:01;17.50;44.60
37232;DHT22;23125;48.156;15.954;2023-02-21T13:33:42;17.50;44.80
37232;DHT22;23125;48.156;15.954;2023-02-21T13:36:27;17.40;44.80
37232;DHT22;23125;48.156;15.954;2023-02-21T13:39:21;17.50;44.90
37232;DHT22;23125;48.156;15.954;2023-02-21T13:41:55;17.50;45.00
37232;DHT22;23125;48.156;15.954;2023-02-21T13:44:32;17.50;45.20
37232;DHT22;23125;48.156;15.954;2023-02-21T13:47:24;17.50;45.20
37232;DHT22;23125;48.156;15.954;2023-02-21T13:49:55;17.50;45.20
37232;DHT22;23125;48.156;15.954;2023-02-21T14:05:21;17.50;45.50
37232;DHT22;23125;48.156;15.954;2023-02-21T14:08:49;17.50;45.60
37232;DHT22;23125;48.156;15.954;2023-02-21T14:10:50;17.50;45.60
37232;DHT22;23125;48.156;15.954;2023-02-21T14:13:41;17.50;45.70
37232;DHT22;23125;48.156;15.954;2023-02-21T14:16:16;17.50;45.80
37232;DHT22;23125;48.156;15.954;2023-02-21T14:21:38;17.50;45.80
37232;DHT22;23125;48.156;15.954;2023-02-21T14:24:21;17.50;45.80
37232;DHT22;23125;48.156;15.954;2023-02-21T14:26:54;17.50;45.80
37232;DHT22;23125;48.156;15.954;2023-02-21T14:34:52;17.40;45.70
37232;DHT22;23125;48.156;15.954;2023-02-21T14:37:37;17.40;45.70
37232;DHT22;23125;48.156;15.954;2023-02-21T14:55:42;17.20;46.10
37232;DHT22;23125;48.156;15.954;2023-02-21T14:58:11;17.10;46.20
37232;DHT22;23125;48.156;15.954;2023-02-21T15:03:23;17.00;46.30
37232;DHT22;23125;48.156;15.954;2023-02-21T15:06:04;17.00;46.40
37232;DHT22;23125;48.156;15.954;2023-02-21T15:08:48;17.10;46.50
37232;DHT22;23125;48.156;15.954;2023-02-21T15:11:21;17.00;46.50
37232;DHT22;23125;48.156;15.954;2023-02-21T15:13:47;17.00;46.60
37232;DHT22;23125;48.156;15.954;2023-02-21T15:16:34;17.00;46.60
37232;DHT22;23125;48.156;15.954;2023-02-21T15:19:01;17.00;46.70
37232;DHT22;23125;48.156;15.954;2023-02-21T15:21:27;17.00;46.70
37232;DHT22;23125;48.156;15.954;2023-02-21T15:24:01;17.00;46.60
37232;DHT22;23125;48.156;15.954;2023-02-21T15:26:30;17.00;46.70
37232;DHT22;23125;48.156;15.954;2023-02-21T15:29:14;17.00;46.70
37232;DHT22;23125;48.156;15.954;2023-02-21T15:31:48;16.90;46.70
37232;DHT22;23125;48.156;15.954;2023-02-21T15:36:50;16.90;46.80
37232;DHT22;23125;48.156;15.954;2023-02-21T15:39:25;16.80;46.70
37232;DHT22;23125;48.156;15.954;2023-02-21T15:41:53;16.80;46.80
37232;DHT22;23125;48.156;15.954;2023-02-21T15:44:31;16.80;46.80
37232;DHT22;23125;48.156;15.954;2023-02-21T15:47:23;16.80;46.90
37232;DHT22;23125;48.156;15.954;2023-02-21T15:52:40;16.70;47.00
37232;DHT22;23125;48.156;15.954;2023-02-21T16:00:38;16.60;47.20
37232;DHT22;23125;48.156;15.954;2023-02-21T16:03:28;16.50;47.20
37232;DHT22;23125;48.156;15.954;2023-02-21T16:06:06;16.50;47.20
37232;DHT22;23125;48.156;15.954;2023-02-21T16:08:33;16.50;47.20
37232;DHT22;23125;48.156;15.954;2023-02-21T16:11:03;16.40;47.30
37232;DHT22;23125;48.156;15.954;2023-02-21T16:13:37;16.40;47.40
37232;DHT22;23125;48.156;15.954;2023-02-21T16:16:04;16.30;47.50
37232;DHT22;23125;48.156;15.954;2023-02-21T16:18:31;16.30;47.60
37232;DHT22;23125;48.156;15.954;2023-02-21T16:21:02;16.30;47.60
37232;DHT22;23125;48.156;15.954;2023-02-21T16:23:38;16.20;47.70
37232;DHT22;23125;48.156;15.954;2023-02-21T16:28:36;16.20;47.80
37232;DHT22;23125;48.156;15.954;2023-02-21T16:31:05;16.20;47.80
37232;DHT22;23125;48.156;15.954;2023-02-21T16:33:32;16.10;47.80
37232;DHT22;23125;48.156;15.954;2023-02-21T16:35:59;16.10;47.80
37232;DHT22;23125;48.156;15.954;2023-02-21T16:38:26;16.10;47.80
37232;DHT22;23125;48.156;15.954;2023-02-21T16:40:52;16.00;47.80
37232;DHT22;23125;48.156;15.954;2023-02-21T16:43:25;16.00;47.90
37232;DHT22;23125;48.156;15.954;2023-02-21T16:45:58;15.90;47.80
37232;DHT22;23125;48.156;15.954;2023-02-21T16:48:26;15.90;47.80
37232;DHT22;23125;48.156;15.954;2023-02-21T16:50:59;15.90;47.90
37232;DHT22;23125;48.156;15.954;2023-02-21T16:53:28;15.80;47.90
37232;DHT22;23125;48.156;15.954;2023-02-21T16:55:55;15.70;47.90
37232;DHT22;23125;48.156;15.954;2023-02-21T16:58:28;15.70;47.90
37232;DHT22;23125;48.156;15.954;2023-02-21T17:00:56;15.60;48.00
37232;DHT22;23125;48.156;15.954;2023-02-21T17:03:24;15.60;48.10
37232;DHT22;23125;48.156;15.954;2023-02-21T17:05:54;15.50;48.10
37232;DHT22;23125;48.156;15.954;2023-02-21T17:08:20;15.40;48.20
37232;DHT22;23125;48.156;15.954;2023-02-21T17:10:47;15.40;48.30
37232;DHT22;23125;48.156;15.954;2023-02-21T17:13:13;15.40;48.40
37232;DHT22;23125;48.156;15.954;2023-02-21T17:15:38;15.30;48.40
37232;DHT22;23125;48.156;15.954;2023-02-21T17:18:04;15.30;48.50
37232;DHT22;23125;48.156;15.954;2023-02-21T17:20:30;15.20;48.60
37232;DHT22;23125;48.156;15.954;2023-02-21T17:22:56;15.20;48.60
37232;DHT22;23125;48.156;15.954;2023-02-21T17:25:24;15.10;48.60
37232;DHT22;23125;48.156;15.954;2023-02-21T17:27:51;15.10;48.70
37232;DHT22;23125;48.156;15.954;2023-02-21T17:30:19;15.00;48.70
37232;DHT22;23125;48.156;15.954;2023-02-21T17:32:46;15.00;48.70
37232;DHT22;23125;48.156;15.954;2023-02-21T17:35:13;14.90;48.70
37232;DHT22;23125;48.156;15.954;2023-02-21T17:37:41;14.80;48.70
37232;DHT22;23125;48.156;15.954;2023-02-21T17:40:09;14.80;48.80
37232;DHT22;23125;48.156;15.954;2023-02-21T17:42:35;14.70;48.90
37232;DHT22;23125;48.156;15.954;2023-02-21T17:45:01;14.60;49.00
37232;DHT22;23125;48.156;15.954;2023-02-21T17:47:27;14.60;49.10
37232;DHT22;23125;48.156;15.954;2023-02-21T17:49:53;14.50;49.10
37232;DHT22;23125;48.156;15.954;2023-02-21T17:52:20;14.50;49.20
37232;DHT22;23125;48.156;15.954;2023-02-21T17:54:46;14.40;49.20
37232;DHT22;23125;48.156;15.954;2023-02-21T17:57:13;14.40;49.30
37232;DHT22;23125;48.156;15.954;2023-02-21T17:59:39;14.30;49.30
37232;DHT22;23125;48.156;15.954;2023-02-21T18:02:06;14.30;49.40
37232;DHT22;23125;48.156;15.954;2023-02-21T18:04:35;14.20;49.40
37232;DHT22;23125;48.156;15.954;2023-02-21T18:07:01;14.10;49.50
37232;DHT22;23125;48.156;15.954;2023-02-21T18:09:26;14.10;49.60
37232;DHT22;23125;48.156;15.954;2023-02-21T18:11:54;14.10;49.60
37232;DHT22;23125;48.156;15.954;2023-02-21T18:14:21;14.00;49.60
37232;DHT22;23125;48.156;15.954;2023-02-21T18:16:47;14.00;49.70
37232;DHT22;23125;48.156;15.954;2023-02-21T18:19:14;13.90;49.80
37232;DHT22;23125;48.156;15.954;2023-02-21T18:21:41;13.90;49.90
37232;DHT22;23125;48.156;15.954;2023-02-21T18:24:09;13.80;50.00
37232;DHT22;23125;48.156;15.954;2023-02-21T18:26:36;13.70;50.00
37232;DHT22;23125;48.156;15.954;2023-02-21T18:29:03;13.70;50.00
37232;DHT22;23125;48.156;15.954;2023-02-21T18:31:29;13.70;50.20
37232;DHT22;23125;48.156;15.954;2023-02-21T18:33:55;13.60;50.20